sensor_id;sensor_type;location;lat;lon;timestamp;P1;durP1;ratioP1;P2;durP2;ratioP2
52564;SDS011;38460;53.106;7.004;2023-06-24T00:01:35;9.35;;;6.00;;
52564;SDS011;38460;53.106;7.004;2023-06-24T00:04:03;9.95;;;7.18;;
52564;SDS011;38460;53.106;7.004;2023-06-24T00:06:29;10.00;;;6.78;;
52564;SDS011;38460;53.106;7.004;2023-06-24T00:08:55;9.30;;;6.70;;
52564;SDS011;38460;53.106;7.004;2023-06-24T00:11:28;10.20;;;7.35;;
52564;SDS011;38460;53.106;7.004;2023-06-24T00:13:54;10.70;;;8.05;;
52564;SDS011;38460;53.106;7.004;2023-06-24T00:16:21;11.52;;;7.82;;
52564;SDS011;38460;53.106;7.004;2023-06-24T00:18:52;13.38;;;7.78;;
52564;SDS011;38460;53.106;7.004;2023-06-24T00:21:25;11.80;;;7.07;;
52564;SDS011;38460;53.106;7.004;2023-06-24T00:26:23;12.38;;;7.75;;
52564;SDS011;38460;53.106;7.004;2023-06-24T00:28:49;10.65;;;7.28;;
52564;SDS011;38460;53.106;7.004;2023-06-24T00:31:15;11.65;;;6.97;;
52564;SDS011;38460;53.106;7.004;2023-06-24T00:33:41;11.93;;;7.57;;
52564;SDS011;38460;53.106;7.004;2023-06-24T00:36:07;8.95;;;7.63;;
52564;SDS011;38460;53.106;7.004;2023-06-24T00:38:36;10.70;;;7.30;;
52564;SDS011;38460;53.106;7.004;2023-06-24T00:41:03;9.02;;;6.80;;
52564;SDS011;38460;53.106;7.004;2023-06-24T00:43:29;11.55;;;7.10;;
52564;SDS011;38460;53.106;7.004;2023-06-24T00:45:55;12.30;;;7.90;;
52564;SDS011;38460;53.106;7.004;2023-06-24T00:48:21;10.00;;;6.68;;
52564;SDS011;38460;53.106;7.004;2023-06-24T00:50:48;9.88;;;6.90;;
52564;SDS011;38460;53.106;7.004;2023-06-24T00:53:15;11.35;;;7.82;;
52564;SDS011;38460;53.106;7.004;2023-06-24T00:55:44;10.73;;;7.60;;
52564;SDS011;38460;53.106;7.004;2023-06-24T00:58:11;11.38;;;7.57;;
52564;SDS011;38460;53.106;7.004;2023-06-24T01:00:41;12.20;;;8.07;;
52564;SDS011;38460;53.106;7.004;2023-06-24T01:03:09;12.40;;;7.53;;
52564;SDS011;38460;53.106;7.004;2023-06-24T01:05:43;7.80;;;7.00;;
52564;SDS011;38460;53.106;7.004;2023-06-24T01:08:10;10.60;;;6.63;;
52564;SDS011;38460;53.106;7.004;2023-06-24T01:10:40;10.02;;;6.95;;
52564;SDS011;38460;53.106;7.004;2023-06-24T01:13:06;8.27;;;6.20;;
52564;SDS011;38460;53.106;7.004;2023-06-24T01:15:32;9.02;;;6.60;;
52564;SDS011;38460;53.106;7.004;2023-06-24T01:18:02;11.18;;;7.70;;
52564;SDS011;38460;53.106;7.004;2023-06-24T01:29:22;11.52;;;7.72;;
52564;SDS011;38460;53.106;7.004;2023-06-24T01:37:32;12.60;;;9.07;;
52564;SDS011;38460;53.106;7.004;2023-06-24T01:40:12;12.02;;;8.05;;
52564;SDS011;38460;53.106;7.004;2023-06-24T01:42:46;11.60;;;8.40;;
52564;SDS011;38460;53.106;7.004;2023-06-24T01:45:14;10.82;;;8.80;;
52564;SDS011;38460;53.106;7.004;2023-06-24T01:47:47;11.32;;;8.45;;
52564;SDS011;38460;53.106;7.004;2023-06-24T01:50:16;12.95;;;8.32;;
52564;SDS011;38460;53.106;7.004;2023-06-24T01:52:47;11.38;;;8.00;;
52564;SDS011;38460;53.106;7.004;2023-06-24T01:55:16;11.15;;;7.93;;
52564;SDS011;38460;53.106;7.004;2023-06-24T01:57:45;13.77;;;10.02;;
52564;SDS011;38460;53.106;7.004;2023-06-24T02:00:13;12.02;;;9.52;;
52564;SDS011;38460;53.106;7.004;2023-06-24T02:02:40;14.65;;;10.43;;
52564;SDS011;38460;53.106;7.004;2023-06-24T02:05:07;12.82;;;10.00;;
52564;SDS011;38460;53.106;7.004;2023-06-24T02:07:34;15.40;;;10.40;;
52564;SDS011;38460;53.106;7.004;2023-06-24T02:10:02;16.33;;;10.75;;
52564;SDS011;38460;53.106;7.004;2023-06-24T02:12:29;16.20;;;10.80;;
52564;SDS011;38460;53.106;7.004;2023-06-24T02:14:55;13.40;;;9.73;;
52564;SDS011;38460;53.106;7.004;2023-06-24T02:17:23;15.15;;;10.52;;
52564;SDS011;38460;53.106;7.004;2023-06-24T02:19:51;14.10;;;9.73;;
52564;SDS011;38460;53.106;7.004;2023-06-24T02:22:17;15.52;;;9.68;;
52564;SDS011;38460;53.106;7.004;2023-06-24T02:24:44;12.07;;;9.10;;
52564;SDS011;38460;53.106;7.004;2023-06-24T02:27:12;12.07;;;8.77;;
52564;SDS011;38460;53.106;7.004;2023-06-24T02:29:39;13.43;;;9.50;;
52564;SDS011;38460;53.106;7.004;2023-06-24T02:32:06;13.85;;;10.35;;
52564;SDS011;38460;53.106;7.004;2023-06-24T02:34:32;13.82;;;9.88;;
52564;SDS011;38460;53.106;7.004;2023-06-24T02:36:58;12.52;;;9.07;;
52564;SDS011;38460;53.106;7.004;2023-06-24T02:39:24;11.57;;;7.95;;
52564;SDS011;38460;53.106;7.004;2023-06-24T02:41:50;14.93;;;9.88;;
52564;SDS011;38460;53.106;7.004;2023-06-24T02:44:15;15.88;;;10.13;;
52564;SDS011;38460;53.106;7.004;2023-06-24T02:46:42;13.88;;;9.93;;
52564;SDS011;38460;53.106;7.004;2023-06-24T02:49:10;11.65;;;9.05;;
52564;SDS011;38460;53.106;7.004;2023-06-24T02:51:38;13.57;;;9.90;;
52564;SDS011;38460;53.106;7.004;2023-06-24T02:54:05;13.80;;;9.77;;
52564;SDS011;38460;53.106;7.004;2023-06-24T02:56:31;13.77;;;9.88;;
52564;SDS011;38460;53.106;7.004;2023-06-24T02:58:58;14.05;;;10.20;;
52564;SDS011;38460;53.106;7.004;2023-06-24T03:01:23;12.95;;;9.25;;
52564;SDS011;38460;53.106;7.004;2023-06-24T03:03:54;13.00;;;9.68;;
52564;SDS011;38460;53.106;7.004;2023-06-24T03:06:21;13.77;;;10.07;;
52564;SDS011;38460;53.106;7.004;2023-06-24T03:08:48;13.70;;;9.63;;
52564;SDS011;38460;53.106;7.004;2023-06-24T03:11:15;12.63;;;9.45;;
52564;SDS011;38460;53.106;7.004;2023-06-24T03:13:42;12.88;;;9.73;;
52564;SDS011;38460;53.106;7.004;2023-06-24T03:16:08;12.00;;;9.00;;
52564;SDS011;38460;53.106;7.004;2023-06-24T03:18:37;15.63;;;10.10;;
52564;SDS011;38460;53.106;7.004;2023-06-24T03:21:07;11.98;;;8.95;;
52564;SDS011;38460;53.106;7.004;2023-06-24T03:23:33;12.68;;;9.48;;
52564;SDS011;38460;53.106;7.004;2023-06-24T03:25:59;16.77;;;10.23;;
52564;SDS011;38460;53.106;7.004;2023-06-24T03:28:25;12.57;;;9.40;;
52564;SDS011;38460;53.106;7.004;2023-06-24T03:30:51;13.68;;;9.93;;
52564;SDS011;38460;53.106;7.004;2023-06-24T03:33:17;15.75;;;10.77;;
52564;SDS011;38460;53.106;7.004;2023-06-24T03:35:43;12.52;;;8.80;;
52564;SDS011;38460;53.106;7.004;2023-06-24T03:38:09;15.18;;;10.63;;
52564;SDS011;38460;53.106;7.004;2023-06-24T03:40:35;13.70;;;10.02;;
52564;SDS011;38460;53.106;7.004;2023-06-24T03:43:00;15.63;;;10.10;;
52564;SDS011;38460;53.106;7.004;2023-06-24T03:45:26;17.05;;;10.48;;
52564;SDS011;38460;53.106;7.004;2023-06-24T03:47:52;13.90;;;9.75;;
52564;SDS011;38460;53.106;7.004;2023-06-24T03:50:17;12.40;;;9.10;;
52564;SDS011;38460;53.106;7.004;2023-06-24T03:52:43;12.68;;;8.77;;
52564;SDS011;38460;53.106;7.004;2023-06-24T03:55:09;13.93;;;9.70;;
52564;SDS011;38460;53.106;7.004;2023-06-24T03:57:36;13.77;;;8.98;;
52564;SDS011;38460;53.106;7.004;2023-06-24T04:00:02;11.85;;;9.07;;
52564;SDS011;38460;53.106;7.004;2023-06-24T04:02:40;14.98;;;9.70;;
52564;SDS011;38460;53.106;7.004;2023-06-24T04:05:07;14.07;;;9.88;;
52564;SDS011;38460;53.106;7.004;2023-06-24T04:07:33;14.90;;;10.05;;
52564;SDS011;38460;53.106;7.004;2023-06-24T04:10:01;16.88;;;10.60;;
52564;SDS011;38460;53.106;7.004;2023-06-24T04:12:29;14.98;;;9.95;;
52564;SDS011;38460;53.106;7.004;2023-06-24T04:14:55;13.95;;;10.85;;
52564;SDS011;38460;53.106;7.004;2023-06-24T04:17:20;15.70;;;10.43;;
52564;SDS011;38460;53.106;7.004;2023-06-24T04:19:46;13.35;;;10.23;;
52564;SDS011;38460;53.106;7.004;2023-06-24T04:22:12;14.32;;;10.60;;
52564;SDS011;38460;53.106;7.004;2023-06-24T04:24:38;15.82;;;10.15;;
52564;SDS011;38460;53.106;7.004;2023-06-24T04:27:05;15.63;;;9.95;;
52564;SDS011;38460;53.106;7.004;2023-06-24T04:29:32;15.07;;;10.50;;
52564;SDS011;38460;53.106;7.004;2023-06-24T04:31:58;11.98;;;8.93;;
52564;SDS011;38460;53.106;7.004;2023-06-24T04:34:23;14.73;;;10.07;;
52564;SDS011;38460;53.106;7.004;2023-06-24T04:36:49;19.67;;;9.18;;
52564;SDS011;38460;53.106;7.004;2023-06-24T04:39:15;16.45;;;9.88;;
52564;SDS011;38460;53.106;7.004;2023-06-24T04:41:41;14.25;;;9.02;;
52564;SDS011;38460;53.106;7.004;2023-06-24T04:44:06;12.13;;;8.45;;
52564;SDS011;38460;53.106;7.004;2023-06-24T04:46:32;12.68;;;8.77;;
52564;SDS011;38460;53.106;7.004;2023-06-24T04:48:59;13.57;;;9.10;;
52564;SDS011;38460;53.106;7.004;2023-06-24T04:51:25;13.07;;;9.15;;
52564;SDS011;38460;53.106;7.004;2023-06-24T04:53:51;13.05;;;8.45;;
52564;SDS011;38460;53.106;7.004;2023-06-24T04:56:17;11.07;;;8.48;;
52564;SDS011;38460;53.106;7.004;2023-06-24T04:58:42;13.90;;;8.88;;
52564;SDS011;38460;53.106;7.004;2023-06-24T05:01:09;12.02;;;8.23;;
52564;SDS011;38460;53.106;7.004;2023-06-24T05:03:35;14.80;;;9.18;;
52564;SDS011;38460;53.106;7.004;2023-06-24T05:06:01;14.60;;;9.30;;
52564;SDS011;38460;53.106;7.004;2023-06-24T05:08:26;11.93;;;8.82;;
52564;SDS011;38460;53.106;7.004;2023-06-24T05:10:52;10.60;;;8.00;;
52564;SDS011;38460;53.106;7.004;2023-06-24T05:13:18;11.88;;;8.93;;
52564;SDS011;38460;53.106;7.004;2023-06-24T05:15:43;15.77;;;8.82;;
52564;SDS011;38460;53.106;7.004;2023-06-24T05:18:09;13.30;;;8.60;;
52564;SDS011;38460;53.106;7.004;2023-06-24T05:20:35;11.65;;;7.97;;
52564;SDS011;38460;53.106;7.004;2023-06-24T05:23:01;13.07;;;8.98;;
52564;SDS011;38460;53.106;7.004;2023-06-24T05:25:27;12.75;;;8.18;;
52564;SDS011;38460;53.106;7.004;2023-06-24T05:27:52;11.20;;;8.07;;
52564;SDS011;38460;53.106;7.004;2023-06-24T05:30:18;11.75;;;8.02;;
52564;SDS011;38460;53.106;7.004;2023-06-24T05:32:44;13.75;;;9.35;;
52564;SDS011;38460;53.106;7.004;2023-06-24T05:35:09;12.10;;;7.90;;
52564;SDS011;38460;53.106;7.004;2023-06-24T05:37:35;12.10;;;7.68;;
52564;SDS011;38460;53.106;7.004;2023-06-24T05:40:01;11.68;;;8.27;;
52564;SDS011;38460;53.106;7.004;2023-06-24T05:42:28;13.82;;;9.35;;
52564;SDS011;38460;53.106;7.004;2023-06-24T05:44:54;12.80;;;7.93;;
52564;SDS011;38460;53.106;7.004;2023-06-24T05:47:19;10.73;;;7.38;;
52564;SDS011;38460;53.106;7.004;2023-06-24T05:49:45;10.93;;;8.10;;
52564;SDS011;38460;53.106;7.004;2023-06-24T05:52:11;12.60;;;8.00;;
52564;SDS011;38460;53.106;7.004;2023-06-24T05:54:37;12.60;;;7.97;;
52564;SDS011;38460;53.106;7.004;2023-06-24T05:57:03;12.63;;;7.50;;
52564;SDS011;38460;53.106;7.004;2023-06-24T05:59:32;13.27;;;7.95;;
52564;SDS011;38460;53.106;7.004;2023-06-24T06:01:58;13.05;;;7.47;;
52564;SDS011;38460;53.106;7.004;2023-06-24T06:04:26;10.52;;;7.72;;
52564;SDS011;38460;53.106;7.004;2023-06-24T06:06:55;9.95;;;7.57;;
52564;SDS011;38460;53.106;7.004;2023-06-24T06:09:21;11.88;;;8.30;;
52564;SDS011;38460;53.106;7.004;2023-06-24T06:11:47;11.25;;;8.77;;
52564;SDS011;38460;53.106;7.004;2023-06-24T06:14:13;12.35;;;8.43;;
52564;SDS011;38460;53.106;7.004;2023-06-24T06:16:39;11.57;;;8.82;;
52564;SDS011;38460;53.106;7.004;2023-06-24T06:19:05;12.07;;;7.38;;
52564;SDS011;38460;53.106;7.004;2023-06-24T06:21:31;12.30;;;8.68;;
52564;SDS011;38460;53.106;7.004;2023-06-24T06:23:57;14.07;;;9.20;;
52564;SDS011;38460;53.106;7.004;2023-06-24T06:26:23;13.85;;;7.88;;
52564;SDS011;38460;53.106;7.004;2023-06-24T06:28:49;13.02;;;8.68;;
52564;SDS011;38460;53.106;7.004;2023-06-24T06:31:15;9.88;;;7.75;;
52564;SDS011;38460;53.106;7.004;2023-06-24T06:33:41;11.70;;;7.95;;
52564;SDS011;38460;53.106;7.004;2023-06-24T06:36:08;11.32;;;8.07;;
52564;SDS011;38460;53.106;7.004;2023-06-24T06:38:34;12.05;;;8.60;;
52564;SDS011;38460;53.106;7.004;2023-06-24T06:41:00;10.50;;;7.18;;
52564;SDS011;38460;53.106;7.004;2023-06-24T06:43:25;11.27;;;7.65;;
52564;SDS011;38460;53.106;7.004;2023-06-24T06:45:51;9.95;;;7.68;;
52564;SDS011;38460;53.106;7.004;2023-06-24T06:48:17;10.73;;;7.35;;
52564;SDS011;38460;53.106;7.004;2023-06-24T06:50:43;11.10;;;7.32;;
52564;SDS011;38460;53.106;7.004;2023-06-24T06:53:09;12.40;;;8.23;;
52564;SDS011;38460;53.106;7.004;2023-06-24T06:55:36;11.60;;;7.90;;
52564;SDS011;38460;53.106;7.004;2023-06-24T06:58:04;10.45;;;7.40;;
52564;SDS011;38460;53.106;7.004;2023-06-24T07:00:30;11.00;;;7.07;;
52564;SDS011;38460;53.106;7.004;2023-06-24T07:02:55;9.32;;;6.32;;
52564;SDS011;38460;53.106;7.004;2023-06-24T07:05:21;12.18;;;6.88;;
52564;SDS011;38460;53.106;7.004;2023-06-24T07:07:47;9.95;;;6.68;;
52564;SDS011;38460;53.106;7.004;2023-06-24T07:10:15;10.18;;;6.93;;
52564;SDS011;38460;53.106;7.004;2023-06-24T07:12:42;9.60;;;7.05;;
52564;SDS011;38460;53.106;7.004;2023-06-24T07:15:08;10.25;;;7.20;;
52564;SDS011;38460;53.106;7.004;2023-06-24T07:17:34;10.73;;;7.00;;
52564;SDS011;38460;53.106;7.004;2023-06-24T07:20:00;11.10;;;7.20;;
52564;SDS011;38460;53.106;7.004;2023-06-24T07:22:25;12.15;;;7.80;;
52564;SDS011;38460;53.106;7.004;2023-06-24T07:24:51;8.80;;;6.53;;
52564;SDS011;38460;53.106;7.004;2023-06-24T07:27:17;12.07;;;7.50;;
52564;SDS011;38460;53.106;7.004;2023-06-24T07:29:43;12.90;;;8.73;;
52564;SDS011;38460;53.106;7.004;2023-06-24T07:32:08;11.65;;;8.30;;
52564;SDS011;38460;53.106;7.004;2023-06-24T07:34:35;10.38;;;7.32;;
52564;SDS011;38460;53.106;7.004;2023-06-24T07:37:01;11.45;;;7.93;;
52564;SDS011;38460;53.106;7.004;2023-06-24T07:39:27;12.32;;;7.55;;
52564;SDS011;38460;53.106;7.004;2023-06-24T07:41:53;12.60;;;7.90;;
52564;SDS011;38460;53.106;7.004;2023-06-24T07:44:18;9.65;;;7.50;;
52564;SDS011;38460;53.106;7.004;2023-06-24T07:46:44;11.43;;;7.95;;
52564;SDS011;38460;53.106;7.004;2023-06-24T07:49:10;10.35;;;7.28;;
52564;SDS011;38460;53.106;7.004;2023-06-24T07:51:36;9.45;;;7.15;;
52564;SDS011;38460;53.106;7.004;2023-06-24T07:54:01;9.00;;;7.47;;
52564;SDS011;38460;53.106;7.004;2023-06-24T07:56:27;11.07;;;8.20;;
52564;SDS011;38460;53.106;7.004;2023-06-24T07:58:53;9.80;;;7.40;;
52564;SDS011;38460;53.106;7.004;2023-06-24T08:01:19;10.48;;;7.50;;
52564;SDS011;38460;53.106;7.004;2023-06-24T08:03:44;13.98;;;7.50;;
52564;SDS011;38460;53.106;7.004;2023-06-24T08:06:10;10.25;;;6.82;;
52564;SDS011;38460;53.106;7.004;2023-06-24T08:08:36;10.23;;;7.55;;
52564;SDS011;38460;53.106;7.004;2023-06-24T08:11:02;10.13;;;7.18;;
52564;SDS011;38460;53.106;7.004;2023-06-24T08:13:28;9.20;;;7.38;;
52564;SDS011;38460;53.106;7.004;2023-06-24T08:15:54;13.02;;;6.97;;
52564;SDS011;38460;53.106;7.004;2023-06-24T08:18:21;9.38;;;6.65;;
52564;SDS011;38460;53.106;7.004;2023-06-24T08:20:47;9.88;;;7.32;;
52564;SDS011;38460;53.106;7.004;2023-06-24T08:23:12;10.40;;;6.95;;
52564;SDS011;38460;53.106;7.004;2023-06-24T08:25:38;9.68;;;6.65;;
52564;SDS011;38460;53.106;7.004;2023-06-24T08:28:04;8.50;;;6.47;;
52564;SDS011;38460;53.106;7.004;2023-06-24T08:30:30;9.45;;;6.20;;
52564;SDS011;38460;53.106;7.004;2023-06-24T08:32:56;14.70;;;6.90;;
52564;SDS011;38460;53.106;7.004;2023-06-24T08:35:21;8.95;;;6.68;;
52564;SDS011;38460;53.106;7.004;2023-06-24T08:37:47;8.68;;;6.53;;
52564;SDS011;38460;53.106;7.004;2023-06-24T08:40:13;8.25;;;5.85;;
52564;SDS011;38460;53.106;7.004;2023-06-24T08:42:38;8.95;;;6.70;;
52564;SDS011;38460;53.106;7.004;2023-06-24T08:45:04;7.35;;;5.57;;
52564;SDS011;38460;53.106;7.004;2023-06-24T08:47:30;9.65;;;5.60;;
52564;SDS011;38460;53.106;7.004;2023-06-24T08:50:11;8.07;;;5.80;;
52564;SDS011;38460;53.106;7.004;2023-06-24T08:52:39;10.82;;;6.03;;
52564;SDS011;38460;53.106;7.004;2023-06-24T08:55:10;9.38;;;6.07;;
52564;SDS011;38460;53.106;7.004;2023-06-24T08:57:38;8.35;;;5.75;;
52564;SDS011;38460;53.106;7.004;2023-06-24T09:00:05;6.78;;;4.90;;
52564;SDS011;38460;53.106;7.004;2023-06-24T09:02:34;8.25;;;5.20;;
52564;SDS011;38460;53.106;7.004;2023-06-24T09:05:03;6.20;;;4.53;;
52564;SDS011;38460;53.106;7.004;2023-06-24T09:07:32;6.30;;;4.47;;
52564;SDS011;38460;53.106;7.004;2023-06-24T09:09:58;5.97;;;4.25;;
52564;SDS011;38460;53.106;7.004;2023-06-24T09:12:25;6.18;;;4.47;;
52564;SDS011;38460;53.106;7.004;2023-06-24T09:14:51;5.68;;;4.35;;
52564;SDS011;38460;53.106;7.004;2023-06-24T09:17:18;5.95;;;3.95;;
52564;SDS011;38460;53.106;7.004;2023-06-24T09:19:47;6.70;;;4.88;;
52564;SDS011;38460;53.106;7.004;2023-06-24T09:22:13;7.85;;;5.13;;
52564;SDS011;38460;53.106;7.004;2023-06-24T09:24:42;6.90;;;5.15;;
52564;SDS011;38460;53.106;7.004;2023-06-24T09:27:11;7.13;;;5.20;;
52564;SDS011;38460;53.106;7.004;2023-06-24T09:29:40;9.57;;;5.43;;
52564;SDS011;38460;53.106;7.004;2023-06-24T09:32:06;8.00;;;5.05;;
52564;SDS011;38460;53.106;7.004;2023-06-24T09:34:33;6.32;;;5.40;;
52564;SDS011;38460;53.106;7.004;2023-06-24T09:36:59;7.25;;;4.63;;
52564;SDS011;38460;53.106;7.004;2023-06-24T09:39:26;6.90;;;4.95;;
52564;SDS011;38460;53.106;7.004;2023-06-24T09:41:55;7.10;;;5.45;;
52564;SDS011;38460;53.106;7.004;2023-06-24T09:44:22;7.35;;;4.40;;
52564;SDS011;38460;53.106;7.004;2023-06-24T09:46:47;6.28;;;4.20;;
52564;SDS011;38460;53.106;7.004;2023-06-24T09:49:13;6.40;;;5.07;;
52564;SDS011;38460;53.106;7.004;2023-06-24T09:51:42;7.20;;;4.30;;
52564;SDS011;38460;53.106;7.004;2023-06-24T09:54:10;6.22;;;3.78;;
52564;SDS011;38460;53.106;7.004;2023-06-24T09:56:37;4.95;;;3.55;;
52564;SDS011;38460;53.106;7.004;2023-06-24T09:59:24;4.97;;;4.15;;
52564;SDS011;38460;53.106;7.004;2023-06-24T10:01:52;5.07;;;3.97;;
52564;SDS011;38460;53.106;7.004;2023-06-24T10:04:19;5.85;;;4.13;;
52564;SDS011;38460;53.106;7.004;2023-06-24T10:06:47;6.63;;;4.32;;
52564;SDS011;38460;53.106;7.004;2023-06-24T10:09:13;6.65;;;3.60;;
52564;SDS011;38460;53.106;7.004;2023-06-24T10:11:42;7.35;;;3.63;;
52564;SDS011;38460;53.106;7.004;2023-06-24T10:14:11;6.20;;;3.78;;
52564;SDS011;38460;53.106;7.004;2023-06-24T10:16:37;4.72;;;3.70;;
52564;SDS011;38460;53.106;7.004;2023-06-24T10:19:03;5.75;;;4.30;;
52564;SDS011;38460;53.106;7.004;2023-06-24T10:29:36;6.85;;;3.97;;
52564;SDS011;38460;53.106;7.004;2023-06-24T10:32:06;5.32;;;3.90;;
52564;SDS011;38460;53.106;7.004;2023-06-24T10:34:34;5.03;;;3.77;;
52564;SDS011;38460;53.106;7.004;2023-06-24T10:47:34;5.97;;;3.40;;
52564;SDS011;38460;53.106;7.004;2023-06-24T10:50:04;6.18;;;3.70;;
52564;SDS011;38460;53.106;7.004;2023-06-24T10:52:31;5.78;;;4.00;;
52564;SDS011;38460;53.106;7.004;2023-06-24T10:54:57;6.55;;;3.60;;
52564;SDS011;38460;53.106;7.004;2023-06-24T10:57:24;5.07;;;3.60;;
52564;SDS011;38460;53.106;7.004;2023-06-24T10:59:55;4.82;;;3.55;;
52564;SDS011;38460;53.106;7.004;2023-06-24T11:02:23;6.85;;;3.95;;
52564;SDS011;38460;53.106;7.004;2023-06-24T11:04:50;7.25;;;3.83;;
52564;SDS011;38460;53.106;7.004;2023-06-24T11:07:20;5.05;;;3.35;;
52564;SDS011;38460;53.106;7.004;2023-06-24T11:09:50;5.07;;;3.80;;
52564;SDS011;38460;53.106;7.004;2023-06-24T11:12:17;5.28;;;3.60;;
52564;SDS011;38460;53.106;7.004;2023-06-24T11:14:43;6.45;;;4.00;;
52564;SDS011;38460;53.106;7.004;2023-06-24T11:17:09;4.80;;;3.72;;
52564;SDS011;38460;53.106;7.004;2023-06-24T11:19:35;5.28;;;3.88;;
52564;SDS011;38460;53.106;7.004;2023-06-24T11:22:04;4.78;;;3.38;;
52564;SDS011;38460;53.106;7.004;2023-06-24T11:24:31;4.68;;;3.58;;
52564;SDS011;38460;53.106;7.004;2023-06-24T11:26:57;5.65;;;3.78;;
52564;SDS011;38460;53.106;7.004;2023-06-24T11:29:23;6.40;;;3.60;;
52564;SDS011;38460;53.106;7.004;2023-06-24T11:31:50;7.43;;;5.85;;
52564;SDS011;38460;53.106;7.004;2023-06-24T11:34:16;9.32;;;7.10;;
52564;SDS011;38460;53.106;7.004;2023-06-24T11:36:42;5.45;;;4.00;;
52564;SDS011;38460;53.106;7.004;2023-06-24T11:39:08;4.70;;;3.50;;
52564;SDS011;38460;53.106;7.004;2023-06-24T11:41:44;5.07;;;3.90;;
52564;SDS011;38460;53.106;7.004;2023-06-24T11:44:10;5.28;;;3.58;;
52564;SDS011;38460;53.106;7.004;2023-06-24T11:46:37;4.47;;;3.38;;
52564;SDS011;38460;53.106;7.004;2023-06-24T11:49:06;4.68;;;3.53;;
52564;SDS011;38460;53.106;7.004;2023-06-24T11:51:33;4.38;;;3.30;;
52564;SDS011;38460;53.106;7.004;2023-06-24T11:54:00;4.57;;;3.35;;
52564;SDS011;38460;53.106;7.004;2023-06-24T11:56:36;5.10;;;3.78;;
52564;SDS011;38460;53.106;7.004;2023-06-24T11:59:06;4.47;;;3.03;;
52564;SDS011;38460;53.106;7.004;2023-06-24T12:01:42;4.32;;;3.00;;
52564;SDS011;38460;53.106;7.004;2023-06-24T12:04:09;5.22;;;3.17;;
52564;SDS011;38460;53.106;7.004;2023-06-24T12:06:37;5.00;;;3.45;;
52564;SDS011;38460;53.106;7.004;2023-06-24T12:09:02;5.53;;;3.00;;
52564;SDS011;38460;53.106;7.004;2023-06-24T12:11:28;5.38;;;3.05;;
52564;SDS011;38460;53.106;7.004;2023-06-24T12:13:54;4.38;;;3.03;;
52564;SDS011;38460;53.106;7.004;2023-06-24T12:16:20;5.05;;;3.08;;
52564;SDS011;38460;53.106;7.004;2023-06-24T12:18:45;5.38;;;3.53;;
52564;SDS011;38460;53.106;7.004;2023-06-24T12:21:11;4.60;;;3.05;;
52564;SDS011;38460;53.106;7.004;2023-06-24T12:23:37;4.10;;;3.20;;
52564;SDS011;38460;53.106;7.004;2023-06-24T12:26:02;6.22;;;3.30;;
52564;SDS011;38460;53.106;7.004;2023-06-24T12:28:28;4.10;;;3.15;;
52564;SDS011;38460;53.106;7.004;2023-06-24T12:30:54;4.93;;;3.17;;
52564;SDS011;38460;53.106;7.004;2023-06-24T12:33:20;4.43;;;2.95;;
52564;SDS011;38460;53.106;7.004;2023-06-24T12:35:47;5.72;;;3.20;;
52564;SDS011;38460;53.106;7.004;2023-06-24T12:38:13;5.55;;;3.22;;
52564;SDS011;38460;53.106;7.004;2023-06-24T12:40:41;4.80;;;3.10;;
52564;SDS011;38460;53.106;7.004;2023-06-24T12:43:06;5.03;;;2.90;;
52564;SDS011;38460;53.106;7.004;2023-06-24T12:45:32;5.53;;;3.20;;
52564;SDS011;38460;53.106;7.004;2023-06-24T12:47:59;4.97;;;3.33;;
52564;SDS011;38460;53.106;7.004;2023-06-24T12:50:25;4.40;;;3.05;;
52564;SDS011;38460;53.106;7.004;2023-06-24T12:52:51;4.95;;;3.05;;
52564;SDS011;38460;53.106;7.004;2023-06-24T12:55:16;5.03;;;3.20;;
52564;SDS011;38460;53.106;7.004;2023-06-24T12:57:42;5.57;;;3.35;;
52564;SDS011;38460;53.106;7.004;2023-06-24T13:00:09;4.40;;;2.80;;
52564;SDS011;38460;53.106;7.004;2023-06-24T13:05:04;5.75;;;3.17;;
52564;SDS011;38460;53.106;7.004;2023-06-24T13:07:30;4.35;;;3.10;;
52564;SDS011;38460;53.106;7.004;2023-06-24T13:09:56;5.28;;;3.33;;
52564;SDS011;38460;53.106;7.004;2023-06-24T13:12:21;5.22;;;3.30;;
52564;SDS011;38460;53.106;7.004;2023-06-24T13:14:47;5.10;;;3.17;;
52564;SDS011;38460;53.106;7.004;2023-06-24T13:17:13;4.82;;;3.33;;
52564;SDS011;38460;53.106;7.004;2023-06-24T13:19:39;5.25;;;3.40;;
52564;SDS011;38460;53.106;7.004;2023-06-24T13:22:05;4.10;;;2.88;;
52564;SDS011;38460;53.106;7.004;2023-06-24T13:24:30;4.30;;;3.20;;
52564;SDS011;38460;53.106;7.004;2023-06-24T13:26:56;4.68;;;3.22;;
52564;SDS011;38460;53.106;7.004;2023-06-24T13:29:22;4.40;;;3.40;;
52564;SDS011;38460;53.106;7.004;2023-06-24T13:31:47;4.88;;;3.50;;
52564;SDS011;38460;53.106;7.004;2023-06-24T13:34:13;5.43;;;3.40;;
52564;SDS011;38460;53.106;7.004;2023-06-24T13:36:39;5.40;;;3.58;;
52564;SDS011;38460;53.106;7.004;2023-06-24T13:39:06;4.82;;;3.17;;
52564;SDS011;38460;53.106;7.004;2023-06-24T13:41:34;5.82;;;3.47;;
52564;SDS011;38460;53.106;7.004;2023-06-24T13:44:03;4.68;;;3.40;;
52564;SDS011;38460;53.106;7.004;2023-06-24T13:46:29;3.97;;;2.95;;
52564;SDS011;38460;53.106;7.004;2023-06-24T13:48:56;6.82;;;3.58;;
52564;SDS011;38460;53.106;7.004;2023-06-24T13:51:23;6.43;;;3.78;;
52564;SDS011;38460;53.106;7.004;2023-06-24T13:53:50;6.15;;;3.15;;
52564;SDS011;38460;53.106;7.004;2023-06-24T13:56:17;4.88;;;3.33;;
52564;SDS011;38460;53.106;7.004;2023-06-24T13:58:45;4.88;;;3.20;;
52564;SDS011;38460;53.106;7.004;2023-06-24T14:01:11;4.18;;;3.35;;
52564;SDS011;38460;53.106;7.004;2023-06-24T14:03:37;6.40;;;3.63;;
52564;SDS011;38460;53.106;7.004;2023-06-24T14:06:03;4.25;;;3.45;;
52564;SDS011;38460;53.106;7.004;2023-06-24T14:08:29;4.55;;;3.42;;
52564;SDS011;38460;53.106;7.004;2023-06-24T14:10:57;4.82;;;3.58;;
52564;SDS011;38460;53.106;7.004;2023-06-24T14:13:23;7.90;;;5.03;;
52564;SDS011;38460;53.106;7.004;2023-06-24T14:15:49;7.43;;;5.38;;
52564;SDS011;38460;53.106;7.004;2023-06-24T14:18:15;7.93;;;6.18;;
52564;SDS011;38460;53.106;7.004;2023-06-24T14:20:41;8.90;;;6.15;;
52564;SDS011;38460;53.106;7.004;2023-06-24T14:23:07;11.95;;;7.72;;
52564;SDS011;38460;53.106;7.004;2023-06-24T14:25:32;11.80;;;7.15;;
52564;SDS011;38460;53.106;7.004;2023-06-24T14:27:58;12.15;;;7.95;;
52564;SDS011;38460;53.106;7.004;2023-06-24T14:30:24;10.00;;;6.47;;
52564;SDS011;38460;53.106;7.004;2023-06-24T14:32:50;9.93;;;6.63;;
52564;SDS011;38460;53.106;7.004;2023-06-24T14:35:15;8.90;;;6.10;;
52564;SDS011;38460;53.106;7.004;2023-06-24T14:37:41;11.43;;;6.47;;
52564;SDS011;38460;53.106;7.004;2023-06-24T14:40:07;10.40;;;7.63;;
52564;SDS011;38460;53.106;7.004;2023-06-24T14:42:35;11.48;;;6.80;;
52564;SDS011;38460;53.106;7.004;2023-06-24T14:45:01;11.95;;;6.85;;
52564;SDS011;38460;53.106;7.004;2023-06-24T14:47:26;12.50;;;6.93;;
52564;SDS011;38460;53.106;7.004;2023-06-24T14:49:52;10.35;;;6.90;;
52564;SDS011;38460;53.106;7.004;2023-06-24T14:52:18;12.68;;;7.40;;
52564;SDS011;38460;53.106;7.004;2023-06-24T14:54:45;10.07;;;7.00;;
52564;SDS011;38460;53.106;7.004;2023-06-24T14:57:12;8.95;;;6.75;;
52564;SDS011;38460;53.106;7.004;2023-06-24T14:59:37;11.50;;;6.63;;
52564;SDS011;38460;53.106;7.004;2023-06-24T15:02:03;19.73;;;6.88;;
52564;SDS011;38460;53.106;7.004;2023-06-24T15:04:29;10.85;;;6.30;;
52564;SDS011;38460;53.106;7.004;2023-06-24T15:06:55;13.52;;;7.70;;
52564;SDS011;38460;53.106;7.004;2023-06-24T15:09:22;9.75;;;5.82;;
52564;SDS011;38460;53.106;7.004;2023-06-24T15:11:48;9.80;;;7.10;;
52564;SDS011;38460;53.106;7.004;2023-06-24T15:14:14;10.43;;;6.50;;
52564;SDS011;38460;53.106;7.004;2023-06-24T15:16:40;14.68;;;6.32;;